createdAt,value
2019-01-05T00:01:52.416Z,19.10
2019-01-05T00:04:09.861Z,20.50
2019-01-05T00:05:16.907Z,18.50
2019-01-05T00:06:24.084Z,21.60
2019-01-05T00:07:30.874Z,22.00
2019-01-05T00:08:37.813Z,21.40
2019-01-05T00:09:44.783Z,23.90
2019-01-05T00:10:51.906Z,19.90
2019-01-05T00:11:58.932Z,20.80
2019-01-05T00:13:05.951Z,20.30
2019-01-05T00:14:12.826Z,22.50
2019-01-05T00:15:19.997Z,22.40
2019-01-05T00:16:27.139Z,20.70
2019-01-05T00:17:34.100Z,22.80
2019-01-05T00:18:40.916Z,21.70
2019-01-05T00:19:52.253Z,21.70
2019-01-05T00:21:00.655Z,22.00
2019-01-05T00:23:14.784Z,22.00
2019-01-05T00:24:21.369Z,19.10
2019-01-05T00:25:28.423Z,23.20
2019-01-05T00:26:35.497Z,24.80
2019-01-05T00:27:42.259Z,25.60
2019-01-05T00:28:49.216Z,22.70
2019-01-05T00:29:55.912Z,21.40
2019-01-05T00:31:02.232Z,21.30
2019-01-05T00:32:19.500Z,21.30
2019-01-05T00:33:26.388Z,19.10
2019-01-05T00:34:33.620Z,18.90
2019-01-05T00:35:40.359Z,18.50
2019-01-05T00:36:47.527Z,20.20
2019-01-05T00:37:54.191Z,20.90
2019-01-05T00:39:00.873Z,20.00
2019-01-05T00:40:08.055Z,20.20
2019-01-05T00:41:14.996Z,19.30
2019-01-05T00:42:22.382Z,19.90
2019-01-05T00:43:29.164Z,19.50
2019-01-05T00:44:35.763Z,19.60
2019-01-05T00:46:54.680Z,22.50
2019-01-05T00:48:01.098Z,20.90
2019-01-05T00:49:08.097Z,23.30
2019-01-05T00:50:14.976Z,25.30
2019-01-05T00:51:22.024Z,20.20
2019-01-05T00:52:28.610Z,21.70
2019-01-05T00:53:35.303Z,20.60
2019-01-05T00:55:54.024Z,17.90
2019-01-05T00:58:07.029Z,19.40
2019-01-05T00:59:14.045Z,21.20
2019-01-05T01:00:21.113Z,24.20
2019-01-05T01:01:29.058Z,21.80
2019-01-05T01:03:41.992Z,21.70
2019-01-05T01:05:54.702Z,20.90
2019-01-05T01:07:01.477Z,22.50
2019-01-05T01:08:14.976Z,19.90
2019-01-05T01:09:30.568Z,20.40
2019-01-05T01:10:37.840Z,25.10
2019-01-05T01:11:44.589Z,25.10
2019-01-05T01:12:51.148Z,22.80
2019-01-05T01:13:58.216Z,21.30
2019-01-05T01:15:05.048Z,22.40
2019-01-05T01:16:12.287Z,19.30
2019-01-05T01:17:20.459Z,20.00
2019-01-05T01:19:38.205Z,18.30
2019-01-05T01:20:45.084Z,21.10
2019-01-05T01:22:58.068Z,18.90
2019-01-05T01:24:04.756Z,19.30
2019-01-05T01:25:11.924Z,21.10
2019-01-05T01:26:19.020Z,20.80
2019-01-05T01:27:26.172Z,18.70
2019-01-05T01:28:32.614Z,17.40
2019-01-05T01:29:39.492Z,18.70
2019-01-05T01:30:49.120Z,22.70
2019-01-05T01:31:56.416Z,18.50
2019-01-05T01:33:03.197Z,21.10
2019-01-05T01:34:09.901Z,19.80
2019-01-05T01:35:17.009Z,18.00
2019-01-05T01:36:24.101Z,18.80
2019-01-05T01:37:31.027Z,21.90
2019-01-05T01:38:37.707Z,21.30
2019-01-05T01:39:44.696Z,22.70
2019-01-05T01:40:51.231Z,20.80
2019-01-05T01:41:58.516Z,21.30
2019-01-05T01:44:17.149Z,19.30
2019-01-05T01:45:24.219Z,20.50
2019-01-05T01:46:31.119Z,23.50
2019-01-05T01:47:38.008Z,18.00
2019-01-05T01:48:44.839Z,18.80
2019-01-05T01:49:51.799Z,18.50
2019-01-05T01:50:58.677Z,19.10
2019-01-05T01:52:06.380Z,20.30
2019-01-05T01:53:13.024Z,17.40
2019-01-05T01:54:19.901Z,18.80
2019-01-05T01:55:26.860Z,17.50
2019-01-05T01:56:34.435Z,23.80
2019-01-05T01:57:40.694Z,18.60
2019-01-05T01:58:50.205Z,18.10
2019-01-05T01:59:56.885Z,18.30
2019-01-05T02:01:07.536Z,20.90
2019-01-05T02:02:18.527Z,20.90
2019-01-05T02:03:25.283Z,20.60
2019-01-05T02:04:31.932Z,19.50
2019-01-05T02:05:39.006Z,20.60
2019-01-05T02:06:45.915Z,18.00
2019-01-05T02:07:53.963Z,16.90
2019-01-05T02:09:00.512Z,18.40
2019-01-05T02:10:07.697Z,16.50
2019-01-05T02:11:14.068Z,18.90
2019-01-05T02:13:29.459Z,19.80
2019-01-05T02:14:35.992Z,19.60
2019-01-05T02:15:42.656Z,19.70
2019-01-05T02:16:49.824Z,17.00
2019-01-05T02:17:56.107Z,21.10
2019-01-05T02:20:20.132Z,19.10
2019-01-05T02:21:27.046Z,17.30
2019-01-05T02:22:34.008Z,16.80
2019-01-05T02:24:54.289Z,21.20
2019-01-05T02:26:16.195Z,19.00
2019-01-05T02:27:23.292Z,19.20
2019-01-05T02:28:30.416Z,19.20
2019-01-05T02:29:37.733Z,17.20
2019-01-05T02:30:44.406Z,19.00
2019-01-05T02:31:51.497Z,20.90
2019-01-05T02:32:58.566Z,19.30
2019-01-05T02:34:17.448Z,17.70
2019-01-05T02:35:24.557Z,16.70
2019-01-05T02:37:59.316Z,18.30
2019-01-05T02:39:19.584Z,17.60
2019-01-05T02:40:26.160Z,18.30
2019-01-05T02:41:52.681Z,18.20
2019-01-05T02:42:59.520Z,19.50
2019-01-05T02:44:24.619Z,19.50
2019-01-05T02:45:31.293Z,20.30
2019-01-05T02:46:38.362Z,17.70
2019-01-05T02:47:45.340Z,17.60
2019-01-05T02:48:52.506Z,19.60
2019-01-05T02:51:11.052Z,18.00
2019-01-05T02:52:18.016Z,21.20
2019-01-05T02:53:25.117Z,17.40
2019-01-05T02:54:44.247Z,19.40
2019-01-05T02:57:41.285Z,19.10
2019-01-05T02:59:02.308Z,16.60
2019-01-05T03:00:09.163Z,18.70
2019-01-05T03:01:16.149Z,18.20
2019-01-05T03:03:03.377Z,17.40
2019-01-05T03:04:10.826Z,18.30
2019-01-05T03:05:17.701Z,18.40
2019-01-05T03:06:24.970Z,16.80
2019-01-05T03:07:31.751Z,17.60
2019-01-05T03:08:47.937Z,20.60
2019-01-05T03:10:28.160Z,16.70
2019-01-05T03:11:35.344Z,17.10
2019-01-05T03:12:49.083Z,18.50
2019-01-05T03:13:56.568Z,16.60
2019-01-05T03:15:03.029Z,18.00
2019-01-05T03:16:24.104Z,17.20
2019-01-05T03:17:30.997Z,19.40
2019-01-05T03:18:38.176Z,14.90
2019-01-05T03:19:44.641Z,17.30
2019-01-05T03:22:07.550Z,15.90
2019-01-05T03:23:26.112Z,13.30
2019-01-05T03:24:32.884Z,14.30
2019-01-05T03:25:39.595Z,15.40
2019-01-05T03:26:46.395Z,15.30
2019-01-05T03:27:53.257Z,16.80
2019-01-05T03:29:00.465Z,15.90
2019-01-05T03:30:21.749Z,15.30
2019-01-05T03:31:37.541Z,15.60
2019-01-05T03:32:44.097Z,17.40
2019-01-05T03:36:02.046Z,13.80
2019-01-05T03:37:08.686Z,14.40
2019-01-05T03:38:15.660Z,15.40
2019-01-05T03:39:22.753Z,13.70
2019-01-05T03:40:29.688Z,13.60
2019-01-05T03:41:43.501Z,14.50
2019-01-05T03:42:58.481Z,14.50
2019-01-05T03:44:29.432Z,15.10
2019-01-05T03:47:07.452Z,12.60
2019-01-05T03:48:22.996Z,13.00
2019-01-05T03:49:29.637Z,14.50
2019-01-05T03:50:53.201Z,14.50
2019-01-05T03:52:14.112Z,12.00
2019-01-05T03:53:21.172Z,13.80
2019-01-05T03:54:40.511Z,14.30
2019-01-05T03:55:47.005Z,14.60
2019-01-05T03:56:54.197Z,15.50
2019-01-05T03:58:00.945Z,14.00
2019-01-05T03:59:22.463Z,13.30
2019-01-05T04:00:35.598Z,14.60
2019-01-05T04:01:42.352Z,12.80
2019-01-05T04:02:48.996Z,14.90
2019-01-05T04:03:56.257Z,13.50
2019-01-05T04:05:20.984Z,13.60
2019-01-05T04:06:37.512Z,12.40
2019-01-05T04:07:44.223Z,12.30
2019-01-05T04:08:51.604Z,13.50
2019-01-05T04:10:11.366Z,13.00
2019-01-05T04:11:37.398Z,12.80
2019-01-05T04:12:44.251Z,13.50
2019-01-05T04:13:51.755Z,14.50
2019-01-05T04:16:43.112Z,13.50
2019-01-05T04:17:50.024Z,13.70
2019-01-05T04:18:57.092Z,14.10
2019-01-05T04:20:03.629Z,17.20
2019-01-05T04:21:10.649Z,13.80
2019-01-05T04:22:17.468Z,14.20
2019-01-05T04:23:24.693Z,12.10
2019-01-05T04:25:44.270Z,14.00
2019-01-05T04:26:50.902Z,12.90
2019-01-05T04:27:57.820Z,11.90
2019-01-05T04:29:05.451Z,11.70
2019-01-05T04:30:24.308Z,13.50
2019-01-05T04:31:31.180Z,12.40
2019-01-05T04:35:53.453Z,13.70
2019-01-05T04:37:00.284Z,12.80
2019-01-05T04:38:07.044Z,12.50
2019-01-05T04:39:13.986Z,11.70
2019-01-05T04:43:40.047Z,13.00
2019-01-05T04:44:46.548Z,13.00
2019-01-05T04:47:10.700Z,12.80
2019-01-05T04:48:17.258Z,11.30
2019-01-05T04:49:25.060Z,15.10
2019-01-05T04:51:44.644Z,12.60
2019-01-05T04:52:51.189Z,12.20
2019-01-05T04:53:58.459Z,12.70
2019-01-05T04:56:35.252Z,12.20
2019-01-05T04:57:42.091Z,10.50
2019-01-05T04:58:48.979Z,11.20
2019-01-05T04:59:55.923Z,12.70
2019-01-05T05:01:02.655Z,11.60
2019-01-05T05:02:09.580Z,10.60
2019-01-05T05:03:16.184Z,12.10
2019-01-05T05:04:25.029Z,11.10
2019-01-05T05:05:52.361Z,11.20
2019-01-05T05:06:59.281Z,13.40
2019-01-05T05:08:06.023Z,12.00
2019-01-05T05:09:23.550Z,12.00
2019-01-05T05:10:30.210Z,11.00
2019-01-05T05:11:37.277Z,12.80
2019-01-05T05:12:44.173Z,12.20
2019-01-05T05:13:51.421Z,11.30
2019-01-05T05:14:57.704Z,11.70
2019-01-05T05:16:23.595Z,12.00
2019-01-05T05:17:30.367Z,11.70
2019-01-05T05:18:37.876Z,13.70
2019-01-05T05:19:44.701Z,12.40
2019-01-05T05:20:51.389Z,12.20
2019-01-05T05:22:04.468Z,13.40
2019-01-05T05:23:11.268Z,11.50
2019-01-05T05:24:18.504Z,12.30
2019-01-05T05:25:25.280Z,11.60
2019-01-05T05:26:39.515Z,11.10
2019-01-05T05:27:46.192Z,13.10
2019-01-05T05:28:52.636Z,11.60
2019-01-05T05:30:00.334Z,12.30
2019-01-05T05:31:07.094Z,12.30
2019-01-05T05:32:13.750Z,12.60
2019-01-05T05:33:34.626Z,12.90
2019-01-05T05:34:42.062Z,9.70
2019-01-05T05:35:48.698Z,10.50
2019-01-05T05:36:55.450Z,11.50
2019-01-05T05:38:02.388Z,11.90
2019-01-05T05:39:24.504Z,10.60
2019-01-05T05:41:41.062Z,11.10
2019-01-05T05:42:47.607Z,12.40
2019-01-05T05:43:54.496Z,10.90
2019-01-05T05:45:45.526Z,9.20
2019-01-05T05:46:52.661Z,11.80
2019-01-05T05:47:59.549Z,11.80
2019-01-05T05:49:23.826Z,11.80
2019-01-05T05:50:30.804Z,10.80
2019-01-05T05:51:38.251Z,12.10
2019-01-05T05:53:55.633Z,11.60
2019-01-05T05:55:02.452Z,11.20
2019-01-05T05:57:22.844Z,12.00
2019-01-05T05:58:29.444Z,10.60
2019-01-05T05:59:42.219Z,12.30
2019-01-05T06:00:48.979Z,11.10
2019-01-05T06:02:05.657Z,11.70
2019-01-05T06:03:12.214Z,13.50
2019-01-05T06:04:18.975Z,12.80
2019-01-05T06:05:25.859Z,10.70
2019-01-05T06:06:33.131Z,11.60
2019-01-05T06:08:54.436Z,11.60
2019-01-05T06:11:13.500Z,14.00
2019-01-05T06:12:32.445Z,11.70
2019-01-05T06:17:01.014Z,13.30
2019-01-05T06:18:08.077Z,11.90
2019-01-05T06:19:15.249Z,11.10
2019-01-05T06:20:22.555Z,11.60
2019-01-05T06:21:29.320Z,11.70
2019-01-05T06:22:45.529Z,11.50
2019-01-05T06:23:52.448Z,12.40
2019-01-05T06:25:22.878Z,12.40
2019-01-05T06:26:29.540Z,11.70
2019-01-05T06:27:36.414Z,11.10
2019-01-05T06:28:43.377Z,9.90
2019-01-05T06:30:08.867Z,12.60
2019-01-05T06:31:15.869Z,11.20
2019-01-05T06:32:40.689Z,11.20
2019-01-05T06:33:47.536Z,12.30
2019-01-05T06:34:54.203Z,11.80
2019-01-05T06:36:01.478Z,9.70
2019-01-05T06:37:08.013Z,12.30
2019-01-05T06:38:14.949Z,9.70
2019-01-05T06:39:21.871Z,10.90
2019-01-05T06:40:28.539Z,11.20
2019-01-05T06:41:45.787Z,11.20
2019-01-05T06:43:08.592Z,11.20
2019-01-05T06:44:15.880Z,11.80
2019-01-05T06:45:22.848Z,10.60
2019-01-05T06:46:50.876Z,9.70
2019-01-05T06:47:57.755Z,10.90
2019-01-05T06:50:20.499Z,9.70
2019-01-05T06:51:27.664Z,10.10
2019-01-05T06:52:34.475Z,11.10
2019-01-05T06:53:41.404Z,12.60
2019-01-05T06:56:05.517Z,11.90
2019-01-05T06:57:12.501Z,11.20
2019-01-05T06:58:19.735Z,12.50
2019-01-05T06:59:26.547Z,9.90
2019-01-05T07:00:33.455Z,13.40
2019-01-05T07:01:55.568Z,12.90
2019-01-05T07:03:02.537Z,10.60
2019-01-05T07:04:09.337Z,10.10
2019-01-05T07:05:16.203Z,8.40
2019-01-05T07:06:33.292Z,8.40
2019-01-05T07:08:57.847Z,9.90
2019-01-05T07:11:15.810Z,11.00
2019-01-05T07:12:22.735Z,11.00
2019-01-05T07:13:25.476Z,12.80
2019-01-05T07:14:31.959Z,12.10
2019-01-05T07:15:39.120Z,10.30
2019-01-05T07:16:46.123Z,9.60
2019-01-05T07:17:52.968Z,8.90
2019-01-05T07:20:12.741Z,13.80
2019-01-05T07:21:19.703Z,12.20
2019-01-05T07:22:26.989Z,14.40
2019-01-05T07:23:33.640Z,11.00
2019-01-05T07:24:48.404Z,9.30
2019-01-05T07:25:55.261Z,8.40
2019-01-05T07:27:02.424Z,9.40
2019-01-05T07:28:19.008Z,9.40
2019-01-05T07:29:26.008Z,9.00
2019-01-05T07:30:48.091Z,8.20
2019-01-05T07:31:55.379Z,7.10
2019-01-05T07:33:02.057Z,8.00
2019-01-05T07:34:09.120Z,9.90
2019-01-05T07:35:15.711Z,8.40
2019-01-05T07:36:22.553Z,7.40
2019-01-05T07:37:29.385Z,8.30
2019-01-05T07:38:36.117Z,7.80
2019-01-05T07:39:57.124Z,7.70
2019-01-05T07:41:04.065Z,9.80
2019-01-05T07:42:11.349Z,8.20
2019-01-05T07:43:17.984Z,7.00
2019-01-05T07:44:24.865Z,8.10
2019-01-05T07:45:44.969Z,7.80
2019-01-05T07:48:10.668Z,6.70
2019-01-05T07:49:17.327Z,6.80
2019-01-05T07:50:24.292Z,6.60
2019-01-05T07:51:31.370Z,7.90
2019-01-05T07:53:53.304Z,7.10
2019-01-05T07:55:00.386Z,7.10
2019-01-05T07:56:07.148Z,6.50
2019-01-05T07:58:23.112Z,11.40
2019-01-05T07:59:29.990Z,13.90
2019-01-05T08:00:48.952Z,12.80
2019-01-05T08:01:56.130Z,11.10
2019-01-05T08:03:02.868Z,8.90
2019-01-05T08:05:29.752Z,8.30
2019-01-05T08:06:37.460Z,5.00
2019-01-05T08:08:57.012Z,4.40
2019-01-05T08:10:03.848Z,4.20
2019-01-05T08:11:21.788Z,4.80
2019-01-05T08:13:43.480Z,4.80
2019-01-05T08:14:50.072Z,4.20
2019-01-05T08:18:09.757Z,4.20
2019-01-05T08:20:31.419Z,3.90
2019-01-05T08:21:37.119Z,4.70
2019-01-05T08:22:43.859Z,3.90
2019-01-05T08:25:05.569Z,4.30
2019-01-05T08:26:12.360Z,4.20
2019-01-05T08:27:19.513Z,4.10
2019-01-05T08:28:26.595Z,4.10
2019-01-05T08:29:40.741Z,5.10
2019-01-05T08:30:47.673Z,4.50
2019-01-05T08:31:54.793Z,4.60
2019-01-05T08:33:01.126Z,3.60
2019-01-05T08:34:08.709Z,3.70
2019-01-05T08:35:15.383Z,3.80
2019-01-05T08:36:22.557Z,3.60
2019-01-05T08:37:29.409Z,3.80
2019-01-05T08:38:36.674Z,5.50
2019-01-05T08:39:43.350Z,4.40
2019-01-05T08:40:50.416Z,3.30
2019-01-05T08:41:57.525Z,3.40
2019-01-05T08:43:04.157Z,4.00
2019-01-05T08:45:20.447Z,4.00
2019-01-05T08:47:05.649Z,3.60
2019-01-05T08:48:12.398Z,4.20
2019-01-05T08:50:32.364Z,3.70
2019-01-05T08:51:46.498Z,3.50
2019-01-05T08:53:16.226Z,3.50
2019-01-05T08:54:29.318Z,3.90
2019-01-05T08:55:48.277Z,3.90
2019-01-05T08:56:55.251Z,3.50
2019-01-05T08:58:01.914Z,3.30
2019-01-05T08:59:08.785Z,3.50
2019-01-05T09:00:15.959Z,3.40
2019-01-05T09:01:23.024Z,3.40
2019-01-05T09:02:56.192Z,3.90
2019-01-05T09:04:23.835Z,3.80
2019-01-05T09:05:31.322Z,3.30
2019-01-05T09:06:38.426Z,3.20
2019-01-05T09:07:45.400Z,4.10
2019-01-05T09:08:52.250Z,4.00
2019-01-05T09:09:58.814Z,3.70
2019-01-05T09:11:05.994Z,2.90
2019-01-05T09:12:12.884Z,3.70
2019-01-05T09:13:19.837Z,4.30
2019-01-05T09:14:26.912Z,3.60
2019-01-05T09:17:05.711Z,3.60
2019-01-05T09:18:12.092Z,4.20
2019-01-05T09:19:31.027Z,3.40
2019-01-05T09:20:38.252Z,3.10
2019-01-05T09:21:44.628Z,3.50
2019-01-05T09:24:00.448Z,3.00
2019-01-05T09:26:22.582Z,3.00
2019-01-05T09:27:29.158Z,4.90
2019-01-05T09:29:47.784Z,3.40
2019-01-05T09:32:05.317Z,6.00
2019-01-05T09:33:12.372Z,4.40
2019-01-05T09:34:19.241Z,5.30
2019-01-05T09:35:26.464Z,4.80
2019-01-05T09:36:33.545Z,3.20
2019-01-05T09:37:40.268Z,3.60
2019-01-05T09:38:46.937Z,2.80
2019-01-05T09:39:54.161Z,3.60
2019-01-05T09:41:01.364Z,4.40
2019-01-05T09:42:07.969Z,3.60
2019-01-05T09:43:14.580Z,3.40
2019-01-05T09:44:21.540Z,2.70
2019-01-05T09:45:28.330Z,2.50
2019-01-05T09:46:35.662Z,2.30
2019-01-05T09:47:42.431Z,3.10
2019-01-05T09:48:49.661Z,4.10
2019-01-05T09:52:13.820Z,5.90
2019-01-05T09:53:43.767Z,5.90
2019-01-05T09:54:58.684Z,3.00
2019-01-05T09:57:16.832Z,2.80
2019-01-05T09:58:24.693Z,2.90
2019-01-05T09:59:30.574Z,2.70
2019-01-05T10:02:09.588Z,2.50
2019-01-05T10:03:16.283Z,2.70
2019-01-05T10:04:23.442Z,2.10
2019-01-05T10:05:30.216Z,2.50
2019-01-05T10:06:37.769Z,2.20
2019-01-05T10:07:44.253Z,2.70
2019-01-05T10:08:51.436Z,3.30
2019-01-05T10:09:58.315Z,2.70
2019-01-05T10:12:15.583Z,2.80
2019-01-05T10:13:38.869Z,2.80
2019-01-05T10:14:45.626Z,2.20
2019-01-05T10:15:52.588Z,2.40
2019-01-05T10:16:59.556Z,2.10
2019-01-05T10:18:17.484Z,2.30
2019-01-05T10:19:24.588Z,2.10
2019-01-05T10:20:31.319Z,2.10
2019-01-05T10:21:45.355Z,2.00
2019-01-05T10:22:52.024Z,2.00
2019-01-05T10:23:58.712Z,2.10
2019-01-05T10:25:05.558Z,2.20
2019-01-05T10:26:12.523Z,2.80
2019-01-05T10:27:19.702Z,2.20
2019-01-05T10:28:26.553Z,2.80
2019-01-05T10:29:33.612Z,2.50
2019-01-05T10:30:40.357Z,2.30
2019-01-05T10:31:54.955Z,2.50
2019-01-05T10:33:11.754Z,2.50
2019-01-05T10:34:26.432Z,2.50
2019-01-05T10:35:33.374Z,2.30
2019-01-05T10:36:50.420Z,2.30
2019-01-05T10:37:56.837Z,2.50
2019-01-05T10:41:14.457Z,3.90
2019-01-05T10:43:36.297Z,3.90
2019-01-05T10:44:43.076Z,4.30
2019-01-05T10:45:49.925Z,7.10
2019-01-05T10:47:43.683Z,3.60
2019-01-05T10:50:01.532Z,2.40
2019-01-05T10:51:08.520Z,5.20
2019-01-05T10:52:25.148Z,4.10
2019-01-05T10:53:31.883Z,3.50
2019-01-05T10:55:53.080Z,3.50
2019-01-05T10:56:59.820Z,11.90
2019-01-05T10:58:07.397Z,5.80
2019-01-05T10:59:26.282Z,2.20
2019-01-05T11:00:59.144Z,2.70
2019-01-05T11:02:05.811Z,2.30
2019-01-05T11:03:14.108Z,2.00
2019-01-05T11:04:20.267Z,2.40
2019-01-05T11:07:15.357Z,2.20
2019-01-05T11:08:22.336Z,2.00
2019-01-05T11:09:29.515Z,2.80
2019-01-05T11:10:36.569Z,2.30
2019-01-05T11:14:58.017Z,1.90
2019-01-05T11:17:19.506Z,1.90
2019-01-05T11:20:08.857Z,2.40
2019-01-05T11:21:16.169Z,2.20
2019-01-05T11:23:38.206Z,3.30
2019-01-05T11:24:45.227Z,3.50
2019-01-05T11:25:52.346Z,2.70
2019-01-05T11:27:10.840Z,2.70
2019-01-05T11:28:18.002Z,3.30
2019-01-05T11:29:24.962Z,3.30
2019-01-05T11:30:38.148Z,3.60
2019-01-05T11:31:44.698Z,2.50
2019-01-05T11:32:51.417Z,2.30
2019-01-05T11:33:59.147Z,2.70
2019-01-05T11:36:18.326Z,2.60
2019-01-05T11:37:25.272Z,2.50
2019-01-05T11:39:44.219Z,2.40
2019-01-05T11:42:06.107Z,2.20
2019-01-05T11:43:19.910Z,4.30
2019-01-05T11:44:26.767Z,2.80
2019-01-05T11:45:33.546Z,3.00
2019-01-05T11:46:40.300Z,3.30
2019-01-05T11:48:05.481Z,3.00
2019-01-05T11:49:25.552Z,3.00
2019-01-05T11:50:32.448Z,2.80
2019-01-05T11:51:40.436Z,2.80
2019-01-05T11:52:46.364Z,3.40
2019-01-05T11:53:53.125Z,2.70
2019-01-05T11:54:59.899Z,2.70
2019-01-05T11:57:22.656Z,2.80
2019-01-05T11:58:29.442Z,2.70
2019-01-05T11:59:36.491Z,2.80
2019-01-05T12:00:43.660Z,3.10
2019-01-05T12:01:50.639Z,2.80
2019-01-05T12:02:57.285Z,2.50
2019-01-05T12:04:04.681Z,2.60
2019-01-05T12:05:11.132Z,3.70
2019-01-05T12:06:35.039Z,2.50
2019-01-05T12:07:40.914Z,3.40
2019-01-05T12:08:47.253Z,3.30
2019-01-05T12:09:55.091Z,3.00
2019-01-05T12:11:01.919Z,3.40
2019-01-05T12:12:08.764Z,2.60
2019-01-05T12:13:15.688Z,2.60
2019-01-05T12:14:22.578Z,2.90
2019-01-05T12:15:38.902Z,3.40
2019-01-05T12:16:53.907Z,2.20
2019-01-05T12:18:00.455Z,3.00
2019-01-05T12:19:07.117Z,2.90
2019-01-05T12:22:32.645Z,2.90
2019-01-05T12:24:50.881Z,2.50
2019-01-05T12:25:57.940Z,2.10
2019-01-05T12:27:14.663Z,3.20
2019-01-05T12:28:21.596Z,2.10
2019-01-05T12:29:28.900Z,3.00
2019-01-05T12:31:47.760Z,3.50
2019-01-05T12:34:43.686Z,2.70
2019-01-05T12:35:50.523Z,3.10
2019-01-05T12:36:57.296Z,2.40
2019-01-05T12:38:05.066Z,2.50
2019-01-05T12:39:13.251Z,2.30
2019-01-05T12:40:18.219Z,2.60
2019-01-05T12:41:34.831Z,2.60
2019-01-05T12:42:41.478Z,2.60
2019-01-05T12:43:49.160Z,2.60
2019-01-05T12:44:55.720Z,2.70
2019-01-05T12:46:02.885Z,3.20
2019-01-05T12:47:09.676Z,2.10
2019-01-05T12:48:23.182Z,3.20
2019-01-05T12:49:30.523Z,2.50
2019-01-05T12:50:37.421Z,2.50
2019-01-05T12:51:44.420Z,2.50
2019-01-05T12:53:01.311Z,2.50
2019-01-05T12:54:09.928Z,3.20
2019-01-05T12:55:25.689Z,3.20
2019-01-05T12:57:49.588Z,2.60
2019-01-05T12:58:56.436Z,2.70
2019-01-05T13:00:03.103Z,2.60
2019-01-05T13:01:10.470Z,2.50
2019-01-05T13:02:17.433Z,3.00
2019-01-05T13:05:10.500Z,2.50
2019-01-05T13:06:17.152Z,2.90
2019-01-05T13:07:24.877Z,2.60
2019-01-05T13:08:31.302Z,4.00
2019-01-05T13:09:37.996Z,5.10
2019-01-05T13:11:57.329Z,4.50
2019-01-05T13:13:09.109Z,5.10
2019-01-05T13:14:16.179Z,4.20
2019-01-05T13:15:32.788Z,3.50
2019-01-05T13:16:54.299Z,4.00
2019-01-05T13:17:57.289Z,2.60
2019-01-05T13:20:46.124Z,2.70
2019-01-05T13:22:00.260Z,2.80
2019-01-05T13:23:07.490Z,6.10
2019-01-05T13:24:13.896Z,5.00
2019-01-05T13:25:21.193Z,3.20
2019-01-05T13:28:00.835Z,3.20
2019-01-05T13:29:13.920Z,4.60
2019-01-05T13:30:20.586Z,7.00
2019-01-05T13:31:27.761Z,10.40
2019-01-05T13:32:44.588Z,10.40
2019-01-05T13:33:51.332Z,7.70
2019-01-05T13:36:17.565Z,5.20
2019-01-05T13:40:45.868Z,3.10
2019-01-05T13:41:52.776Z,3.50
2019-01-05T13:43:09.032Z,3.10
2019-01-05T13:44:15.768Z,2.90
2019-01-05T13:45:24.700Z,3.00
2019-01-05T13:46:29.608Z,3.10
2019-01-05T13:47:36.370Z,3.10
2019-01-05T13:48:42.956Z,4.20
2019-01-05T13:49:50.652Z,3.80
2019-01-05T13:50:57.072Z,2.60
2019-01-05T13:52:04.054Z,3.00
2019-01-05T13:53:10.861Z,3.40
2019-01-05T13:54:19.092Z,2.50
2019-01-05T13:55:26.401Z,2.50
2019-01-05T13:56:33.224Z,2.60
2019-01-05T13:57:39.816Z,3.30
2019-01-05T13:58:46.488Z,2.90
2019-01-05T13:59:53.489Z,2.60
2019-01-05T14:00:59.943Z,2.90
2019-01-05T14:02:07.489Z,2.40
2019-01-05T14:03:14.159Z,2.80
2019-01-05T14:04:21.232Z,2.50
2019-01-05T14:05:28.196Z,3.20
2019-01-05T14:06:34.422Z,2.70
2019-01-05T14:07:41.813Z,2.40
2019-01-05T14:08:48.404Z,2.80
2019-01-05T14:09:55.220Z,2.70
2019-01-05T14:11:03.900Z,2.60
2019-01-05T14:12:08.484Z,2.60
2019-01-05T14:13:15.956Z,3.00
2019-01-05T14:14:23.160Z,2.90
2019-01-05T14:15:29.700Z,3.40
2019-01-05T14:16:36.763Z,3.30
2019-01-05T14:17:43.833Z,4.10
2019-01-05T14:18:51.235Z,2.90
2019-01-05T14:20:02.757Z,3.20
2019-01-05T14:21:09.595Z,2.60
2019-01-05T14:22:16.654Z,2.90
2019-01-05T14:23:24.117Z,3.30
2019-01-05T14:24:30.580Z,2.60
2019-01-05T14:25:37.209Z,2.50
2019-01-05T14:26:43.892Z,3.20
2019-01-05T14:27:51.166Z,4.30
2019-01-05T14:28:58.362Z,2.80
2019-01-05T14:30:05.104Z,2.80
2019-01-05T14:31:11.891Z,2.50
2019-01-05T14:32:19.072Z,2.80
2019-01-05T14:33:26.131Z,3.10
2019-01-05T14:34:32.987Z,2.90
2019-01-05T14:35:40.185Z,4.20
2019-01-05T14:36:47.040Z,3.70
2019-01-05T14:37:54.306Z,3.10
2019-01-05T14:39:08.469Z,4.90
2019-01-05T14:40:15.008Z,2.40
2019-01-05T14:41:22.192Z,2.70
2019-01-05T14:42:29.107Z,3.90
2019-01-05T14:43:36.439Z,2.70
2019-01-05T14:44:43.003Z,2.80
2019-01-05T14:45:49.863Z,2.80
2019-01-05T14:46:56.577Z,3.00
2019-01-05T14:48:03.389Z,2.80
2019-01-05T14:49:10.725Z,3.40
2019-01-05T14:50:19.305Z,4.60
2019-01-05T14:51:26.037Z,3.90
2019-01-05T14:53:41.514Z,3.90
2019-01-05T14:54:48.505Z,3.40
2019-01-05T14:55:55.164Z,3.00
2019-01-05T14:57:02.284Z,4.80
2019-01-05T14:58:09.597Z,3.30
2019-01-05T14:59:19.181Z,2.90
2019-01-05T15:00:26.841Z,3.00
2019-01-05T15:01:33.061Z,2.80
2019-01-05T15:02:40.035Z,3.10
2019-01-05T15:03:46.795Z,3.90
2019-01-05T15:04:54.208Z,3.40
2019-01-05T15:06:00.840Z,3.10
2019-01-05T15:08:18.165Z,3.00
2019-01-05T15:09:25.333Z,3.60
2019-01-05T15:10:32.025Z,2.90
2019-01-05T15:11:39.100Z,3.30
2019-01-05T15:12:45.741Z,4.50
2019-01-05T15:13:52.915Z,6.10
2019-01-05T15:15:00.234Z,6.40
2019-01-05T15:16:06.745Z,4.30
2019-01-05T15:17:13.420Z,4.10
2019-01-05T15:18:20.444Z,5.40
2019-01-05T15:19:27.675Z,4.40
2019-01-05T15:20:34.712Z,5.40
2019-01-05T15:21:41.407Z,3.70
2019-01-05T15:22:52.968Z,3.70
2019-01-05T15:23:59.932Z,4.20
2019-01-05T15:25:07.440Z,5.50
2019-01-05T15:26:17.121Z,3.30
2019-01-05T15:27:24.343Z,3.30
2019-01-05T15:28:42.074Z,3.30
2019-01-05T15:29:54.277Z,3.60
2019-01-05T15:31:00.696Z,6.10
2019-01-05T15:32:07.678Z,4.10
2019-01-05T15:33:14.504Z,4.30
2019-01-05T15:34:21.577Z,4.40
2019-01-05T15:35:28.710Z,4.00
2019-01-05T15:36:35.551Z,3.90
2019-01-05T15:37:42.113Z,4.00
2019-01-05T15:38:49.108Z,4.40
2019-01-05T15:39:56.881Z,4.70
2019-01-05T15:41:03.249Z,4.90
2019-01-05T15:42:10.396Z,5.50
2019-01-05T15:43:17.467Z,5.70
2019-01-05T15:44:24.640Z,3.80
2019-01-05T15:45:31.844Z,6.20
2019-01-05T15:46:42.491Z,4.40
2019-01-05T15:47:45.051Z,5.60
2019-01-05T15:48:52.117Z,6.80
2019-01-05T15:51:07.760Z,6.80
2019-01-05T15:52:14.465Z,6.20
2019-01-05T15:53:21.583Z,6.10
2019-01-05T15:54:28.912Z,7.80
2019-01-05T15:55:36.920Z,4.40
2019-01-05T15:56:42.456Z,3.90
2019-01-05T15:57:49.417Z,4.70
2019-01-05T15:58:56.512Z,4.90
2019-01-05T16:00:05.413Z,4.50
2019-01-05T16:01:10.636Z,5.00
2019-01-05T16:02:17.697Z,5.60
2019-01-05T16:03:24.553Z,5.10
2019-01-05T16:04:30.857Z,5.90
2019-01-05T16:05:38.576Z,5.90
2019-01-05T16:06:45.159Z,8.60
2019-01-05T16:08:57.781Z,6.70
2019-01-05T16:10:09.257Z,4.50
2019-01-05T16:11:16.988Z,4.90
2019-01-05T16:12:23.809Z,4.60
2019-01-05T16:13:30.564Z,4.60
2019-01-05T16:14:37.328Z,4.80
2019-01-05T16:15:44.620Z,6.40
2019-01-05T16:16:51.273Z,8.60
2019-01-05T16:17:58.354Z,6.30
2019-01-05T16:19:05.209Z,7.20
2019-01-05T16:21:17.628Z,5.40
2019-01-05T16:22:24.376Z,4.40
2019-01-05T16:23:31.457Z,6.30
2019-01-05T16:25:48.489Z,4.70
2019-01-05T16:27:02.012Z,6.50
2019-01-05T16:28:09.144Z,4.00
2019-01-05T16:29:16.429Z,3.90
2019-01-05T16:30:23.206Z,4.30
2019-01-05T16:31:30.195Z,6.70
2019-01-05T16:32:37.371Z,5.50
2019-01-05T16:33:44.336Z,4.10
2019-01-05T16:34:51.197Z,3.80
2019-01-05T16:35:57.595Z,3.70
2019-01-05T16:37:04.632Z,3.70
2019-01-05T16:38:11.624Z,3.60
2019-01-05T16:39:18.548Z,3.40
2019-01-05T16:40:25.384Z,4.30
2019-01-05T16:41:32.517Z,3.80
2019-01-05T16:42:39.381Z,5.20
2019-01-05T16:43:45.591Z,5.90
2019-01-05T16:44:55.041Z,6.00
2019-01-05T16:46:07.693Z,7.60
2019-01-05T16:47:14.625Z,8.00
2019-01-05T16:48:21.677Z,7.50
2019-01-05T16:49:28.051Z,7.20
2019-01-05T16:50:35.832Z,8.50
2019-01-05T16:51:42.432Z,8.90
2019-01-05T16:52:49.381Z,8.10
2019-01-05T16:53:56.382Z,8.30
2019-01-05T16:55:02.483Z,8.50
2019-01-05T16:56:09.751Z,9.10
2019-01-05T16:57:16.540Z,8.80
2019-01-05T16:58:23.387Z,7.50
2019-01-05T16:59:29.953Z,7.90
2019-01-05T17:00:37.028Z,8.10
2019-01-05T17:01:43.811Z,9.40
2019-01-05T17:02:51.279Z,9.40
2019-01-05T17:03:58.047Z,9.20
2019-01-05T17:05:07.184Z,7.50
2019-01-05T17:06:13.756Z,7.70
2019-01-05T17:07:20.522Z,7.40
2019-01-05T17:08:28.002Z,7.70
2019-01-05T17:09:34.535Z,9.10
2019-01-05T17:10:41.490Z,8.90